createdAt,value
2018-02-16T00:00:01.779Z,92.80
2018-02-16T00:01:54.556Z,93.56
2018-02-16T00:02:54.624Z,93.27
2018-02-16T00:04:47.117Z,92.61
2018-02-16T00:05:47.042Z,92.71
2018-02-16T00:07:39.811Z,92.99
2018-02-16T00:08:39.662Z,92.99
2018-02-16T00:10:32.460Z,92.80
2018-02-16T00:11:32.317Z,92.80
2018-02-16T00:13:25.091Z,93.37
2018-02-16T00:14:24.963Z,93.56
2018-02-16T00:16:17.711Z,92.90
2018-02-16T00:17:17.614Z,93.37
2018-02-16T00:19:10.369Z,93.27
2018-02-16T00:20:10.267Z,93.37
2018-02-16T00:22:03.015Z,93.18
2018-02-16T00:23:02.897Z,93.18
2018-02-16T00:24:55.686Z,93.37
2018-02-16T00:25:55.565Z,93.18
2018-02-16T00:27:48.302Z,94.13
2018-02-16T00:28:48.200Z,94.04
2018-02-16T00:30:40.968Z,94.04
2018-02-16T00:31:40.845Z,93.56
2018-02-16T00:33:33.595Z,93.18
2018-02-16T00:34:33.491Z,93.08
2018-02-16T00:36:26.279Z,93.37
2018-02-16T00:37:26.164Z,93.56
2018-02-16T00:39:18.914Z,93.18
2018-02-16T00:40:18.792Z,93.08
2018-02-16T00:42:11.558Z,93.27
2018-02-16T00:43:11.436Z,92.80
2018-02-16T00:45:04.177Z,92.33
2018-02-16T00:46:04.076Z,92.14
2018-02-16T00:47:57.898Z,92.14
2018-02-16T00:48:57.760Z,92.14
2018-02-16T00:50:50.510Z,91.95
2018-02-16T00:51:50.401Z,91.67
2018-02-16T00:53:43.674Z,91.76
2018-02-16T00:54:43.556Z,91.76
2018-02-16T00:56:36.320Z,91.19
2018-02-16T00:57:36.233Z,91.19
2018-02-16T00:59:28.977Z,91.19
2018-02-16T01:00:28.888Z,91.00
2018-02-16T01:02:21.627Z,91.29
2018-02-16T01:03:21.497Z,90.81
2018-02-16T01:05:14.376Z,91.10
2018-02-16T01:06:14.269Z,91.10
2018-02-16T01:08:06.996Z,90.44
2018-02-16T01:09:06.891Z,90.72
2018-02-16T01:10:59.658Z,90.44
2018-02-16T01:11:59.538Z,90.63
2018-02-16T01:13:52.292Z,89.87
2018-02-16T01:14:52.186Z,89.77
2018-02-16T01:16:44.950Z,90.06
2018-02-16T01:17:44.829Z,90.15
2018-02-16T01:19:37.584Z,90.63
2018-02-16T01:20:37.491Z,90.53
2018-02-16T01:22:30.259Z,90.44
2018-02-16T01:23:30.130Z,89.77
2018-02-16T01:25:22.871Z,89.96
2018-02-16T01:26:22.773Z,89.68
2018-02-16T01:28:15.538Z,89.58
2018-02-16T01:29:15.416Z,89.49
2018-02-16T01:31:08.175Z,89.77
2018-02-16T01:32:08.080Z,89.68
2018-02-16T01:34:00.917Z,89.39
2018-02-16T01:35:00.716Z,89.68
2018-02-16T01:36:53.487Z,89.96
2018-02-16T01:37:53.365Z,90.15
2018-02-16T01:39:46.193Z,90.34
2018-02-16T01:40:46.092Z,90.72
2018-02-16T01:42:38.768Z,91.00
2018-02-16T01:43:38.731Z,90.63
2018-02-16T01:45:32.512Z,90.15
2018-02-16T01:46:31.378Z,90.44
2018-02-16T01:48:24.072Z,89.68
2018-02-16T01:49:23.954Z,89.96
2018-02-16T01:51:16.738Z,89.30
2018-02-16T01:52:16.624Z,89.01
2018-02-16T01:54:09.361Z,89.20
2018-02-16T01:55:09.266Z,89.01
2018-02-16T01:57:02.036Z,89.68
2018-02-16T01:58:01.900Z,89.87
2018-02-16T01:59:54.650Z,89.01
2018-02-16T02:00:54.547Z,89.01
2018-02-16T02:02:47.298Z,89.11
2018-02-16T02:03:47.192Z,88.73
2018-02-16T02:05:40.074Z,88.64
2018-02-16T02:06:39.841Z,89.11
2018-02-16T02:08:32.593Z,89.58
2018-02-16T02:09:32.492Z,89.30
2018-02-16T02:11:25.530Z,89.39
2018-02-16T02:12:25.130Z,89.30
2018-02-16T02:14:17.899Z,88.64
2018-02-16T02:15:17.781Z,89.01
2018-02-16T02:17:10.554Z,88.07
2018-02-16T02:18:10.429Z,88.35
2018-02-16T02:20:03.237Z,87.88
2018-02-16T02:21:03.075Z,87.69
2018-02-16T02:22:55.851Z,87.50
2018-02-16T02:23:55.720Z,87.59
2018-02-16T02:25:48.464Z,87.98
2018-02-16T02:26:48.367Z,88.17
2018-02-16T02:28:41.147Z,88.35
2018-02-16T02:29:41.032Z,88.45
2018-02-16T02:31:33.759Z,88.40
2018-02-16T02:32:33.660Z,89.44
2018-02-16T02:34:26.434Z,88.97
2018-02-16T02:35:26.307Z,88.97
2018-02-16T02:37:19.062Z,89.06
2018-02-16T02:38:18.955Z,88.40
2018-02-16T02:40:11.719Z,88.21
2018-02-16T02:41:11.604Z,88.59
2018-02-16T02:43:04.372Z,87.46
2018-02-16T02:44:04.303Z,88.12
2018-02-16T02:45:57.049Z,89.16
2018-02-16T02:46:56.897Z,89.25
2018-02-16T02:48:49.738Z,89.54
2018-02-16T02:49:49.561Z,89.82
2018-02-16T02:51:42.313Z,89.82
2018-02-16T02:52:42.199Z,89.63
2018-02-16T02:54:34.948Z,89.87
2018-02-16T02:55:34.859Z,90.25
2018-02-16T02:57:27.616Z,90.16
2018-02-16T02:58:27.524Z,90.34
2018-02-16T03:00:20.745Z,89.82
2018-02-16T03:01:20.641Z,89.59
2018-02-16T03:03:13.941Z,89.78
2018-02-16T03:04:13.815Z,89.59
2018-02-16T03:06:06.567Z,89.87
2018-02-16T03:07:06.462Z,90.06
2018-02-16T03:08:59.860Z,90.82
2018-02-16T03:09:59.610Z,90.63
2018-02-16T03:11:52.356Z,91.10
2018-02-16T03:12:52.257Z,91.77
2018-02-16T03:14:45.542Z,91.53
2018-02-16T03:15:45.408Z,91.53
2018-02-16T03:17:38.170Z,92.00
2018-02-16T03:18:38.062Z,92.90
2018-02-16T03:20:30.850Z,92.66
2018-02-16T03:21:30.708Z,92.24
2018-02-16T03:23:23.474Z,93.42
2018-02-16T03:24:23.352Z,92.94
2018-02-16T03:26:16.381Z,93.23
2018-02-16T03:27:16.009Z,93.13
2018-02-16T03:29:09.259Z,93.04
2018-02-16T03:30:09.186Z,93.13
2018-02-16T03:32:01.969Z,93.23
2018-02-16T03:33:01.830Z,93.04
2018-02-16T03:34:55.078Z,93.23
2018-02-16T03:35:54.966Z,93.13
2018-02-16T03:37:47.730Z,93.32
2018-02-16T03:38:47.621Z,93.13
2018-02-16T03:40:40.363Z,93.13
2018-02-16T03:41:40.259Z,93.04
2018-02-16T03:43:33.630Z,93.42
2018-02-16T03:44:33.413Z,92.94
2018-02-16T03:46:26.189Z,92.57
2018-02-16T03:47:26.076Z,92.57
2018-02-16T03:49:18.847Z,92.19
2018-02-16T03:50:18.729Z,91.01
2018-02-16T03:52:11.464Z,89.50
2018-02-16T03:53:11.354Z,88.74
2018-02-16T03:55:04.644Z,88.07
2018-02-16T03:56:04.528Z,87.88
2018-02-16T03:57:57.288Z,88.07
2018-02-16T03:58:57.186Z,87.70
2018-02-16T04:00:49.966Z,87.88
2018-02-16T04:01:49.817Z,87.51
2018-02-16T04:03:42.681Z,87.51
2018-02-16T04:04:42.575Z,87.70
2018-02-16T04:06:35.839Z,87.13
2018-02-16T04:07:35.726Z,86.56
2018-02-16T04:09:28.472Z,85.24
2018-02-16T04:10:28.376Z,85.14
2018-02-16T04:12:21.178Z,83.91
2018-02-16T04:13:21.058Z,83.72
2018-02-16T04:15:13.765Z,83.39
2018-02-16T04:16:13.661Z,82.91
2018-02-16T04:18:06.429Z,82.91
2018-02-16T04:19:06.318Z,82.68
2018-02-16T04:20:59.078Z,82.87
2018-02-16T04:21:58.962Z,83.15
2018-02-16T04:23:51.732Z,82.87
2018-02-16T04:24:51.609Z,82.78
2018-02-16T04:26:44.373Z,82.78
2018-02-16T04:27:44.252Z,82.72
2018-02-16T04:29:37.027Z,82.53
2018-02-16T04:30:36.898Z,82.44
2018-02-16T04:32:29.657Z,82.06
2018-02-16T04:33:29.560Z,81.77
2018-02-16T04:35:22.309Z,81.59
2018-02-16T04:36:22.191Z,80.93
2018-02-16T04:38:14.966Z,80.26
2018-02-16T04:39:14.836Z,81.02
2018-02-16T04:41:07.619Z,80.45
2018-02-16T04:42:07.552Z,80.36
2018-02-16T04:44:00.270Z,80.36
2018-02-16T04:45:00.195Z,80.93
2018-02-16T04:46:52.899Z,79.98
2018-02-16T04:47:52.823Z,79.22
2018-02-16T04:49:45.562Z,80.26
2018-02-16T04:50:45.433Z,80.45
2018-02-16T04:52:38.210Z,79.69
2018-02-16T04:53:38.088Z,79.41
2018-02-16T04:55:30.837Z,79.03
2018-02-16T04:56:30.742Z,78.85
2018-02-16T04:58:23.521Z,79.22
2018-02-16T04:59:23.368Z,78.65
2018-02-16T05:01:16.118Z,78.27
2018-02-16T05:02:16.041Z,77.89
2018-02-16T05:04:08.775Z,77.99
2018-02-16T05:05:08.666Z,77.80
2018-02-16T05:07:01.489Z,77.23
2018-02-16T05:08:01.391Z,77.14
2018-02-16T05:09:54.169Z,76.19
2018-02-16T05:10:53.961Z,75.09
2018-02-16T05:12:46.807Z,74.33
2018-02-16T05:13:46.714Z,74.71
2018-02-16T05:15:39.578Z,75.09
2018-02-16T05:16:39.461Z,74.81
2018-02-16T05:18:32.312Z,74.15
2018-02-16T05:19:32.227Z,74.15
2018-02-16T05:21:24.967Z,74.90
2018-02-16T05:22:24.855Z,75.95
2018-02-16T05:24:17.712Z,76.38
2018-02-16T05:25:17.606Z,75.81
2018-02-16T05:27:11.606Z,76.95
2018-02-16T05:28:11.480Z,77.04
2018-02-16T05:30:04.336Z,78.85
2018-02-16T05:31:04.246Z,79.98
2018-02-16T05:32:57.105Z,80.26
2018-02-16T05:33:56.981Z,80.74
2018-02-16T05:35:49.844Z,81.30
2018-02-16T05:36:49.726Z,81.96
2018-02-16T05:38:42.485Z,82.15
2018-02-16T05:39:42.378Z,82.63
2018-02-16T05:41:35.638Z,83.39
2018-02-16T05:42:35.535Z,83.86
2018-02-16T05:44:28.307Z,83.58
2018-02-16T05:45:28.190Z,84.14
2018-02-16T05:47:21.038Z,84.23
2018-02-16T05:48:20.938Z,84.42
2018-02-16T05:50:13.711Z,84.52
2018-02-16T05:51:13.599Z,85.09
2018-02-16T05:53:06.329Z,85.00
2018-02-16T05:54:06.235Z,85.57
2018-02-16T05:55:58.993Z,85.57
2018-02-16T05:56:58.877Z,85.28
2018-02-16T05:58:51.620Z,85.57
2018-02-16T05:59:51.524Z,85.57
2018-02-16T06:01:44.293Z,85.38
2018-02-16T06:02:44.176Z,85.28
2018-02-16T06:04:36.917Z,85.47
2018-02-16T06:05:36.821Z,85.57
2018-02-16T06:07:29.590Z,85.00
2018-02-16T06:08:29.462Z,85.66
2018-02-16T06:10:22.221Z,85.57
2018-02-16T06:11:22.107Z,84.81
2018-02-16T06:13:14.877Z,84.90
2018-02-16T06:14:14.755Z,84.61
2018-02-16T06:16:07.508Z,84.23
2018-02-16T06:17:07.402Z,84.23
2018-02-16T06:19:00.160Z,83.76
2018-02-16T06:20:00.054Z,83.29
2018-02-16T06:21:52.843Z,82.34
2018-02-16T06:22:52.699Z,82.34
2018-02-16T06:24:45.456Z,82.25
2018-02-16T06:25:45.357Z,81.40
2018-02-16T06:27:38.092Z,80.93
2018-02-16T06:28:37.994Z,81.40
2018-02-16T06:30:30.764Z,82.25
2018-02-16T06:31:30.635Z,81.77
2018-02-16T06:33:23.405Z,80.26
2018-02-16T06:34:23.301Z,79.93
2018-02-16T06:36:16.052Z,80.74
2018-02-16T06:37:15.940Z,81.12
2018-02-16T06:39:08.688Z,81.49
2018-02-16T06:40:08.686Z,81.96
2018-02-16T06:42:01.498Z,83.62
2018-02-16T06:43:01.423Z,82.67
2018-02-16T06:44:54.135Z,83.62
2018-02-16T06:45:53.981Z,83.81
2018-02-16T06:47:46.743Z,84.19
2018-02-16T06:48:46.662Z,85.42
2018-02-16T06:50:39.476Z,86.27
2018-02-16T06:51:39.388Z,86.46
2018-02-16T06:53:32.170Z,86.08
2018-02-16T06:54:32.035Z,86.27
2018-02-16T06:56:24.806Z,86.18
2018-02-16T06:57:24.675Z,85.89
2018-02-16T06:59:17.465Z,85.61
2018-02-16T07:00:17.322Z,86.27
2018-02-16T07:02:10.076Z,85.32
2018-02-16T07:03:09.971Z,85.61
2018-02-16T07:05:02.756Z,85.61
2018-02-16T07:06:02.617Z,85.89
2018-02-16T07:07:55.385Z,86.27
2018-02-16T07:08:55.265Z,86.74
2018-02-16T07:10:48.308Z,87.78
2018-02-16T07:11:47.919Z,87.69
2018-02-16T07:13:40.666Z,88.07
2018-02-16T07:14:40.556Z,88.26
2018-02-16T07:16:33.346Z,88.07
2018-02-16T07:17:33.205Z,87.88
2018-02-16T07:19:25.954Z,87.45
2018-02-16T07:20:25.858Z,87.78
2018-02-16T07:22:18.625Z,87.83
2018-02-16T07:23:18.505Z,87.59
2018-02-16T07:25:11.268Z,87.64
2018-02-16T07:26:11.217Z,87.16
2018-02-16T07:28:03.914Z,87.16
2018-02-16T07:29:03.787Z,87.07
2018-02-16T07:30:56.561Z,86.98
2018-02-16T07:31:56.436Z,87.07
2018-02-16T07:33:49.204Z,87.07
2018-02-16T07:34:49.093Z,86.98
2018-02-16T07:36:41.985Z,86.79
2018-02-16T07:37:41.827Z,86.60
2018-02-16T07:39:34.605Z,86.79
2018-02-16T07:40:34.490Z,86.69
2018-02-16T07:42:27.326Z,86.88
2018-02-16T07:43:27.231Z,86.88
2018-02-16T07:45:20.035Z,86.88
2018-02-16T07:46:19.931Z,86.88
2018-02-16T07:48:12.720Z,86.88
2018-02-16T07:49:12.623Z,86.69
2018-02-16T07:51:05.492Z,85.93
2018-02-16T07:52:05.378Z,86.22
2018-02-16T07:53:58.120Z,85.46
2018-02-16T07:54:58.037Z,85.55
2018-02-16T07:56:50.912Z,85.36
2018-02-16T07:57:50.769Z,85.65
2018-02-16T07:59:43.642Z,85.74
2018-02-16T08:00:43.530Z,85.84
2018-02-16T08:02:36.297Z,86.41
2018-02-16T08:03:36.181Z,86.22
2018-02-16T08:05:28.915Z,86.88
2018-02-16T08:06:28.840Z,86.60
2018-02-16T08:08:21.703Z,86.69
2018-02-16T08:09:21.587Z,86.79
2018-02-16T08:11:14.325Z,87.45
2018-02-16T08:12:14.229Z,86.79
2018-02-16T08:14:07.073Z,86.60
2018-02-16T08:15:06.966Z,86.88
2018-02-16T08:17:00.228Z,86.60
2018-02-16T08:18:00.129Z,86.60
2018-02-16T08:19:52.983Z,87.07
2018-02-16T08:20:52.871Z,86.88
2018-02-16T08:22:45.622Z,86.98
2018-02-16T08:23:45.530Z,87.07
2018-02-16T08:25:38.390Z,87.16
2018-02-16T08:26:38.267Z,86.69
2018-02-16T08:28:31.132Z,86.31
2018-02-16T08:29:31.031Z,86.55
2018-02-16T08:31:23.793Z,86.26
2018-02-16T08:32:23.673Z,85.60
2018-02-16T08:34:16.522Z,86.12
2018-02-16T08:35:16.422Z,86.16
2018-02-16T08:37:09.406Z,86.45
2018-02-16T08:38:09.273Z,86.64
2018-02-16T08:40:02.131Z,86.16
2018-02-16T08:41:02.026Z,86.07
2018-02-16T08:42:54.909Z,85.74
2018-02-16T08:43:54.804Z,86.03
2018-02-16T08:45:47.649Z,86.31
2018-02-16T08:46:47.518Z,85.93
2018-02-16T08:48:40.383Z,86.50
2018-02-16T08:49:40.276Z,86.50
2018-02-16T08:51:33.154Z,86.50
2018-02-16T08:52:33.054Z,86.41
2018-02-16T08:54:25.885Z,86.22
2018-02-16T08:55:25.771Z,86.12
2018-02-16T08:57:18.639Z,85.74
2018-02-16T08:58:18.515Z,85.74
2018-02-16T09:00:11.296Z,85.93
2018-02-16T09:01:11.163Z,85.74
2018-02-16T09:03:04.001Z,85.55
2018-02-16T09:04:03.916Z,85.36
2018-02-16T09:05:56.771Z,84.99
2018-02-16T09:06:56.661Z,84.99
2018-02-16T09:08:49.506Z,85.46
2018-02-16T09:09:49.420Z,85.36
2018-02-16T09:11:42.169Z,85.46
2018-02-16T09:12:42.058Z,85.69
2018-02-16T09:14:34.821Z,85.74
2018-02-16T09:15:34.701Z,84.89
2018-02-16T09:17:27.486Z,84.32
2018-02-16T09:18:27.359Z,84.23
2018-02-16T09:20:20.095Z,84.42
2018-02-16T09:21:19.996Z,84.80
2018-02-16T09:23:12.755Z,84.84
2018-02-16T09:24:12.646Z,84.27
2018-02-16T09:26:05.395Z,84.27
2018-02-16T09:27:05.310Z,83.80
2018-02-16T09:28:58.558Z,83.61
2018-02-16T09:29:58.460Z,83.32
2018-02-16T09:31:51.194Z,83.23
2018-02-16T09:32:51.097Z,83.61
2018-02-16T09:34:43.871Z,82.75
2018-02-16T09:35:43.769Z,82.66
2018-02-16T09:37:37.017Z,83.04
2018-02-16T09:38:36.903Z,82.85
2018-02-16T09:40:29.709Z,82.37
2018-02-16T09:41:29.553Z,82.56
2018-02-16T09:43:22.306Z,82.09
2018-02-16T09:44:22.266Z,82.37
2018-02-16T09:46:14.959Z,82.18
2018-02-16T09:47:14.851Z,82.28
2018-02-16T09:49:07.599Z,82.09
2018-02-16T09:50:07.498Z,82.18
2018-02-16T09:52:00.262Z,82.47
2018-02-16T09:53:00.148Z,81.90
2018-02-16T09:54:52.886Z,81.62
2018-02-16T09:55:52.786Z,81.52
2018-02-16T09:57:45.545Z,81.71
2018-02-16T09:58:45.433Z,80.29
2018-02-16T10:00:38.182Z,80.29
2018-02-16T10:01:38.081Z,80.10
2018-02-16T10:03:30.866Z,79.66
2018-02-16T10:04:30.729Z,79.82
2018-02-16T10:06:23.472Z,80.14
2018-02-16T10:07:23.384Z,79.95
2018-02-16T10:09:16.151Z,80.04
2018-02-16T10:10:16.025Z,80.04
2018-02-16T10:12:08.781Z,79.66
2018-02-16T10:13:08.670Z,79.34
2018-02-16T10:15:01.497Z,79.85
2018-02-16T10:16:01.371Z,78.77
2018-02-16T10:17:54.066Z,79.85
2018-02-16T10:18:53.974Z,79.53
2018-02-16T10:20:46.737Z,79.72
2018-02-16T10:21:46.614Z,80.67
2018-02-16T10:23:39.364Z,80.00
2018-02-16T10:24:39.260Z,80.14
2018-02-16T10:26:32.022Z,80.04
2018-02-16T10:27:31.915Z,79.76
2018-02-16T10:29:24.650Z,80.04
2018-02-16T10:30:24.553Z,79.85
2018-02-16T10:32:17.319Z,79.76
2018-02-16T10:33:17.225Z,79.28
2018-02-16T10:35:09.948Z,78.81
2018-02-16T10:36:09.847Z,79.28
2018-02-16T10:38:02.619Z,79.19
2018-02-16T10:39:02.504Z,79.00
2018-02-16T10:40:55.243Z,79.10
2018-02-16T10:41:55.146Z,78.91
2018-02-16T10:43:47.978Z,78.81
2018-02-16T10:44:47.797Z,78.53
2018-02-16T10:46:40.547Z,78.53
2018-02-16T10:47:40.463Z,78.15
2018-02-16T10:49:33.199Z,79.00
2018-02-16T10:50:33.087Z,79.57
2018-02-16T10:52:25.846Z,78.81
2018-02-16T10:53:25.733Z,79.10
2018-02-16T10:55:19.130Z,79.28
2018-02-16T10:56:18.996Z,79.38
2018-02-16T10:58:11.738Z,79.00
2018-02-16T10:59:11.654Z,78.72
2018-02-16T11:01:04.503Z,78.91
2018-02-16T11:02:04.405Z,79.19
2018-02-16T11:03:57.160Z,78.62
2018-02-16T11:04:57.043Z,79.28
2018-02-16T11:06:49.892Z,78.81
2018-02-16T11:07:49.788Z,78.72
2018-02-16T11:09:42.630Z,78.62
2018-02-16T11:10:42.533Z,78.91
2018-02-16T11:12:35.395Z,79.19
2018-02-16T11:13:35.279Z,79.00
2018-02-16T11:15:29.572Z,79.10
2018-02-16T11:16:29.468Z,78.72
2018-02-16T11:18:22.330Z,79.10
2018-02-16T11:19:22.213Z,78.91
2018-02-16T11:21:15.087Z,78.62
2018-02-16T11:22:14.958Z,78.24
2018-02-16T11:24:07.816Z,78.91
2018-02-16T11:25:07.721Z,78.53
2018-02-16T11:27:00.606Z,78.19
2018-02-16T11:28:00.465Z,78.38
2018-02-16T11:29:53.316Z,77.43
2018-02-16T11:30:53.209Z,77.24
2018-02-16T11:32:46.094Z,76.57
2018-02-16T11:33:45.969Z,76.29
2018-02-16T11:35:38.834Z,76.67
2018-02-16T11:36:38.728Z,77.24
2018-02-16T11:38:31.584Z,76.76
2018-02-16T11:39:31.531Z,76.20
2018-02-16T11:41:24.340Z,75.91
2018-02-16T11:42:24.214Z,76.01
2018-02-16T11:44:17.096Z,75.24
2018-02-16T11:45:16.966Z,75.62
2018-02-16T11:47:09.843Z,75.81
2018-02-16T11:48:09.715Z,75.43
2018-02-16T11:50:02.591Z,75.62
2018-02-16T11:51:02.486Z,75.53
2018-02-16T11:52:55.315Z,75.34
2018-02-16T11:53:55.221Z,74.87
2018-02-16T11:55:48.074Z,75.00
2018-02-16T11:56:47.967Z,74.62
2018-02-16T11:58:40.830Z,73.67
2018-02-16T11:59:40.723Z,73.35
2018-02-16T12:01:33.596Z,73.76
2018-02-16T12:02:33.465Z,73.67
2018-02-16T12:04:26.316Z,73.10
2018-02-16T12:05:26.211Z,72.53
2018-02-16T12:07:19.084Z,72.63
2018-02-16T12:08:18.962Z,72.91
2018-02-16T12:10:11.800Z,71.96
2018-02-16T12:11:11.727Z,71.86
2018-02-16T12:13:04.566Z,71.20
2018-02-16T12:14:04.462Z,71.20
2018-02-16T12:15:57.311Z,70.82
2018-02-16T12:16:57.205Z,70.63
2018-02-16T12:18:50.089Z,70.25
2018-02-16T12:19:49.967Z,70.06
2018-02-16T12:21:42.808Z,70.25
2018-02-16T12:22:42.707Z,69.96
2018-02-16T12:24:35.568Z,70.15
2018-02-16T12:25:35.463Z,70.35
2018-02-16T12:27:28.328Z,69.21
2018-02-16T12:28:28.203Z,68.73
2018-02-16T12:30:21.077Z,68.54
2018-02-16T12:31:21.004Z,68.83
2018-02-16T12:33:13.798Z,68.83
2018-02-16T12:34:13.702Z,68.64
2018-02-16T12:36:06.565Z,68.54
2018-02-16T12:37:06.454Z,68.44
2018-02-16T12:38:59.299Z,68.16
2018-02-16T12:39:59.209Z,68.73
2018-02-16T12:41:52.096Z,67.40
2018-02-16T12:42:51.979Z,67.21
2018-02-16T12:44:44.808Z,67.69
2018-02-16T12:45:44.718Z,67.50
2018-02-16T12:47:37.562Z,66.74
2018-02-16T12:48:37.458Z,67.02
2018-02-16T12:50:30.337Z,66.55
2018-02-16T12:51:30.198Z,66.30
2018-02-16T12:53:23.073Z,66.67
2018-02-16T12:54:22.950Z,65.82
2018-02-16T12:56:15.825Z,64.87
2018-02-16T12:57:15.699Z,64.11
2018-02-16T12:59:09.084Z,64.78
2018-02-16T13:00:08.962Z,64.78
2018-02-16T13:02:02.321Z,66.49
2018-02-16T13:03:02.226Z,66.58
2018-02-16T13:04:55.095Z,65.35
2018-02-16T13:05:54.985Z,65.82
2018-02-16T13:07:47.917Z,65.73
2018-02-16T13:08:47.826Z,65.63
2018-02-16T13:10:40.695Z,64.87
2018-02-16T13:11:40.576Z,64.78
2018-02-16T13:13:33.520Z,64.59
2018-02-16T13:14:33.419Z,64.78
2018-02-16T13:16:26.819Z,64.11
2018-02-16T13:17:26.688Z,64.02
2018-02-16T13:19:19.532Z,64.49
2018-02-16T13:20:19.438Z,64.40
2018-02-16T13:22:12.353Z,63.45
2018-02-16T13:23:12.195Z,63.07
2018-02-16T13:25:05.039Z,62.59
2018-02-16T13:26:04.936Z,61.45
2018-02-16T13:27:57.812Z,62.21
2018-02-16T13:28:57.690Z,62.69
2018-02-16T13:30:50.558Z,63.35
2018-02-16T13:31:50.455Z,63.45
2018-02-16T13:33:43.320Z,64.11
2018-02-16T13:34:43.192Z,63.73
2018-02-16T13:36:36.034Z,63.07
2018-02-16T13:37:35.943Z,63.45
2018-02-16T13:39:28.808Z,63.17
2018-02-16T13:40:28.835Z,63.07
2018-02-16T13:42:21.548Z,62.50
2018-02-16T13:43:21.453Z,62.56
2018-02-16T13:45:14.419Z,63.35
2018-02-16T13:46:14.285Z,63.07
2018-02-16T13:48:07.135Z,62.97
2018-02-16T13:49:07.069Z,62.94
2018-02-16T13:50:59.899Z,62.88
2018-02-16T13:51:59.788Z,62.97
2018-02-16T13:53:52.672Z,63.42
2018-02-16T13:54:52.566Z,64.21
2018-02-16T13:56:45.408Z,64.11
2018-02-16T13:57:45.296Z,64.17
2018-02-16T13:59:38.135Z,64.08
2018-02-16T14:00:38.037Z,64.21
2018-02-16T14:02:30.907Z,62.46
2018-02-16T14:03:30.796Z,62.50
2018-02-16T14:05:23.640Z,62.50
2018-02-16T14:06:23.553Z,62.46
2018-02-16T14:08:16.412Z,62.31
2018-02-16T14:09:16.285Z,62.59
2018-02-16T14:11:09.234Z,62.31
2018-02-16T14:12:09.139Z,62.02
2018-02-16T14:14:01.993Z,61.36
2018-02-16T14:15:01.890Z,61.45
2018-02-16T14:16:54.726Z,61.17
2018-02-16T14:17:54.638Z,61.55
2018-02-16T14:19:47.519Z,61.36
2018-02-16T14:20:47.383Z,61.36
2018-02-16T14:22:40.239Z,62.21
2018-02-16T14:23:40.143Z,62.69
2018-02-16T14:25:33.124Z,62.66
2018-02-16T14:26:32.900Z,62.85
2018-02-16T14:28:25.725Z,62.94
2018-02-16T14:29:25.627Z,62.18
2018-02-16T14:31:18.506Z,61.55
2018-02-16T14:32:18.388Z,61.36
2018-02-16T14:34:11.257Z,61.36
2018-02-16T14:35:11.141Z,61.29
2018-02-16T14:37:04.102Z,59.49
2018-02-16T14:38:03.991Z,59.74
2018-02-16T14:39:56.837Z,61.55
2018-02-16T14:40:56.748Z,61.36
2018-02-16T14:42:49.656Z,62.40
2018-02-16T14:43:49.478Z,62.50
2018-02-16T14:45:42.382Z,61.26
2018-02-16T14:46:42.239Z,62.02
2018-02-16T14:48:35.095Z,61.83
2018-02-16T14:49:34.976Z,62.40
2018-02-16T14:51:27.843Z,62.12
2018-02-16T14:52:27.735Z,61.74
2018-02-16T14:54:20.689Z,61.07
2018-02-16T14:55:20.481Z,61.26
2018-02-16T14:57:13.341Z,60.79
2018-02-16T14:58:13.231Z,61.83
2018-02-16T15:00:06.126Z,63.13
2018-02-16T15:01:05.995Z,63.13
2018-02-16T15:02:58.886Z,62.94
2018-02-16T15:03:58.725Z,63.23
2018-02-16T15:05:51.596Z,60.31
2018-02-16T15:06:51.480Z,59.68
2018-02-16T15:08:44.339Z,59.01
2018-02-16T15:09:44.236Z,58.47
2018-02-16T15:11:37.089Z,58.09
2018-02-16T15:12:37.019Z,57.04
2018-02-16T15:14:29.837Z,58.25
2018-02-16T15:15:29.747Z,59.65
2018-02-16T15:17:22.633Z,61.74
2018-02-16T15:18:22.476Z,61.58
2018-02-16T15:20:15.337Z,61.58
2018-02-16T15:21:15.234Z,61.39
2018-02-16T15:23:08.097Z,62.50
2018-02-16T15:24:07.981Z,62.59
2018-02-16T15:26:00.825Z,63.60
2018-02-16T15:27:00.733Z,64.27
2018-02-16T15:28:53.693Z,65.03
2018-02-16T15:29:53.577Z,65.50
2018-02-16T15:31:46.434Z,66.17
2018-02-16T15:32:46.339Z,67.50
2018-02-16T15:34:39.199Z,67.56
2018-02-16T15:35:39.084Z,67.65
2018-02-16T15:37:31.922Z,68.23
2018-02-16T15:38:31.836Z,68.23
2018-02-16T15:40:24.792Z,68.23
2018-02-16T15:41:24.771Z,68.60
2018-02-16T15:43:17.436Z,69.27
2018-02-16T15:44:17.337Z,68.60
2018-02-16T15:46:11.206Z,68.60
2018-02-16T15:47:10.617Z,69.46
2018-02-16T15:49:03.960Z,68.98
2018-02-16T15:50:03.343Z,68.79
2018-02-16T15:51:56.450Z,69.08
2018-02-16T15:52:56.297Z,69.17
2018-02-16T15:54:49.153Z,68.89
2018-02-16T15:55:49.048Z,68.89
2018-02-16T15:57:41.929Z,68.98
2018-02-16T15:58:41.797Z,68.79
2018-02-16T16:00:34.696Z,69.04
2018-02-16T16:01:34.547Z,69.33
2018-02-16T16:03:27.393Z,70.47
2018-02-16T16:04:27.296Z,70.09
2018-02-16T16:06:20.146Z,70.65
2018-02-16T16:07:20.538Z,70.65
2018-02-16T16:09:12.921Z,71.13
2018-02-16T16:10:12.798Z,71.13
2018-02-16T16:12:05.668Z,71.22
2018-02-16T16:13:05.564Z,71.80
2018-02-16T16:14:58.396Z,71.89
2018-02-16T16:15:58.299Z,72.08
2018-02-16T16:17:51.134Z,72.08
2018-02-16T16:18:51.059Z,71.98
2018-02-16T16:20:43.906Z,71.89
2018-02-16T16:21:43.785Z,71.89
2018-02-16T16:23:36.640Z,72.14
2018-02-16T16:24:36.537Z,71.66
2018-02-16T16:26:29.414Z,72.14
2018-02-16T16:27:29.287Z,71.95
2018-02-16T16:29:22.142Z,71.95
2018-02-16T16:30:22.030Z,71.95
2018-02-16T16:32:14.930Z,72.42
2018-02-16T16:33:14.784Z,72.71
2018-02-16T16:35:07.637Z,72.89
2018-02-16T16:36:07.534Z,73.18
2018-02-16T16:38:00.431Z,72.89
2018-02-16T16:39:00.292Z,72.99
2018-02-16T16:40:53.138Z,73.37
2018-02-16T16:41:53.037Z,73.27
2018-02-16T16:43:45.917Z,73.08
2018-02-16T16:44:45.808Z,72.99
2018-02-16T16:46:38.650Z,72.96
2018-02-16T16:47:38.558Z,73.75
2018-02-16T16:49:31.423Z,74.03
2018-02-16T16:50:31.290Z,74.56
2018-02-16T16:52:24.138Z,74.75
2018-02-16T16:53:24.052Z,74.75
2018-02-16T16:55:16.916Z,75.32
2018-02-16T16:56:16.797Z,75.60
2018-02-16T16:58:09.652Z,76.08
2018-02-16T16:59:09.540Z,76.36
2018-02-16T17:01:02.426Z,77.31
2018-02-16T17:02:02.280Z,77.88
2018-02-16T17:03:55.123Z,77.84
2018-02-16T17:04:55.033Z,78.69
2018-02-16T17:06:48.792Z,78.13
2018-02-16T17:07:47.793Z,78.41
2018-02-16T17:09:40.630Z,78.13
2018-02-16T17:10:40.526Z,78.41
2018-02-16T17:12:33.419Z,78.59
2018-02-16T17:13:33.296Z,78.41
2018-02-16T17:15:26.117Z,78.69
2018-02-16T17:16:26.027Z,78.59
2018-02-16T17:18:18.904Z,77.94
2018-02-16T17:19:18.772Z,78.41
2018-02-16T17:21:11.747Z,77.84
2018-02-16T17:22:11.631Z,77.94
2018-02-16T17:24:05.027Z,78.59
2018-02-16T17:25:04.892Z,78.03
2018-02-16T17:26:57.735Z,78.41
2018-02-16T17:27:57.646Z,78.03
2018-02-16T17:29:50.522Z,78.31
2018-02-16T17:30:50.408Z,78.59
2018-02-16T17:32:43.240Z,78.59
2018-02-16T17:33:43.144Z,78.88
2018-02-16T17:35:36.007Z,78.88
2018-02-16T17:36:35.891Z,79.07
2018-02-16T17:38:28.752Z,79.36
2018-02-16T17:39:28.648Z,79.07
2018-02-16T17:41:21.500Z,78.88
2018-02-16T17:42:21.396Z,78.88
2018-02-16T17:44:14.434Z,78.59
2018-02-16T17:45:14.340Z,78.41
2018-02-16T17:47:07.215Z,78.50
2018-02-16T17:48:07.101Z,78.69
2018-02-16T17:49:59.945Z,78.73
2018-02-16T17:50:59.847Z,77.59
2018-02-16T17:52:52.824Z,77.59
2018-02-16T17:53:52.691Z,77.84
2018-02-16T17:55:45.557Z,77.88
2018-02-16T17:56:45.439Z,78.54
2018-02-16T17:58:38.305Z,77.50
2018-02-16T17:59:38.187Z,76.74
2018-02-16T18:01:31.053Z,76.55
2018-02-16T18:02:30.939Z,76.27
2018-02-16T18:04:23.799Z,76.08
2018-02-16T18:05:23.693Z,76.36
2018-02-16T18:07:16.575Z,75.23
2018-02-16T18:08:16.441Z,75.13
2018-02-16T18:10:09.317Z,75.04
2018-02-16T18:11:09.184Z,74.37
2018-02-16T18:13:02.973Z,75.04
2018-02-16T18:14:02.874Z,74.95
2018-02-16T18:15:55.730Z,74.37
2018-02-16T18:16:55.625Z,74.66
2018-02-16T18:18:48.539Z,74.18
2018-02-16T18:19:48.372Z,74.37
2018-02-16T18:21:43.904Z,74.47
2018-02-16T18:22:41.957Z,74.66
2018-02-16T18:24:34.776Z,73.99
2018-02-16T18:25:34.675Z,74.47
2018-02-16T18:27:27.551Z,74.18
2018-02-16T18:28:27.436Z,73.99
2018-02-16T18:30:20.281Z,73.52
2018-02-16T18:31:20.181Z,73.90